sensor_id;sensor_type;location;lat;lon;timestamp;P1;durP1;ratioP1;P2;durP2;ratioP2
65996;SDS011;52765;52.258;21.052;2023-04-06T00:01:43;21.48;;;7.45;;
65996;SDS011;52765;52.258;21.052;2023-04-06T00:04:09;21.67;;;7.05;;
65996;SDS011;52765;52.258;21.052;2023-04-06T00:06:35;18.42;;;6.35;;
65996;SDS011;52765;52.258;21.052;2023-04-06T00:09:00;23.05;;;6.72;;
65996;SDS011;52765;52.258;21.052;2023-04-06T00:11:26;13.95;;;5.93;;
65996;SDS011;52765;52.258;21.052;2023-04-06T00:13:52;14.13;;;5.70;;
65996;SDS011;52765;52.258;21.052;2023-04-06T00:16:17;15.38;;;6.43;;
65996;SDS011;52765;52.258;21.052;2023-04-06T00:18:43;14.55;;;5.50;;
65996;SDS011;52765;52.258;21.052;2023-04-06T00:21:11;13.07;;;5.55;;
65996;SDS011;52765;52.258;21.052;2023-04-06T00:23:37;12.02;;;5.68;;
65996;SDS011;52765;52.258;21.052;2023-04-06T00:26:03;16.42;;;5.68;;
65996;SDS011;52765;52.258;21.052;2023-04-06T00:28:29;18.23;;;6.25;;
65996;SDS011;52765;52.258;21.052;2023-04-06T00:30:55;12.80;;;5.82;;
65996;SDS011;52765;52.258;21.052;2023-04-06T00:33:21;13.52;;;5.50;;
65996;SDS011;52765;52.258;21.052;2023-04-06T00:35:49;15.40;;;5.88;;
65996;SDS011;52765;52.258;21.052;2023-04-06T00:38:15;12.80;;;5.28;;
65996;SDS011;52765;52.258;21.052;2023-04-06T00:40:42;17.05;;;6.93;;
65996;SDS011;52765;52.258;21.052;2023-04-06T00:43:09;17.20;;;6.55;;
65996;SDS011;52765;52.258;21.052;2023-04-06T00:45:40;21.98;;;6.53;;
65996;SDS011;52765;52.258;21.052;2023-04-06T00:48:06;14.43;;;5.63;;
65996;SDS011;52765;52.258;21.052;2023-04-06T00:50:33;13.80;;;5.93;;
65996;SDS011;52765;52.258;21.052;2023-04-06T00:52:59;16.38;;;6.00;;
65996;SDS011;52765;52.258;21.052;2023-04-06T00:55:28;12.50;;;5.57;;
65996;SDS011;52765;52.258;21.052;2023-04-06T00:57:55;16.45;;;5.80;;
65996;SDS011;52765;52.258;21.052;2023-04-06T01:00:23;14.07;;;5.20;;
65996;SDS011;52765;52.258;21.052;2023-04-06T01:02:49;14.32;;;5.15;;
65996;SDS011;52765;52.258;21.052;2023-04-06T01:05:15;15.60;;;5.18;;
65996;SDS011;52765;52.258;21.052;2023-04-06T01:07:40;13.48;;;4.78;;
65996;SDS011;52765;52.258;21.052;2023-04-06T01:10:06;15.75;;;5.28;;
65996;SDS011;52765;52.258;21.052;2023-04-06T01:12:32;15.70;;;5.20;;
65996;SDS011;52765;52.258;21.052;2023-04-06T01:14:57;14.75;;;5.18;;
65996;SDS011;52765;52.258;21.052;2023-04-06T01:17:23;15.40;;;5.97;;
65996;SDS011;52765;52.258;21.052;2023-04-06T01:19:48;16.75;;;5.90;;
65996;SDS011;52765;52.258;21.052;2023-04-06T01:22:16;11.88;;;4.80;;
65996;SDS011;52765;52.258;21.052;2023-04-06T01:24:42;17.38;;;5.30;;
65996;SDS011;52765;52.258;21.052;2023-04-06T01:27:07;16.02;;;5.57;;
65996;SDS011;52765;52.258;21.052;2023-04-06T01:29:33;12.48;;;4.65;;
65996;SDS011;52765;52.258;21.052;2023-04-06T01:31:58;12.93;;;5.20;;
65996;SDS011;52765;52.258;21.052;2023-04-06T01:34:24;16.45;;;5.00;;
65996;SDS011;52765;52.258;21.052;2023-04-06T01:36:49;15.20;;;5.50;;
65996;SDS011;52765;52.258;21.052;2023-04-06T01:39:15;10.02;;;4.53;;
65996;SDS011;52765;52.258;21.052;2023-04-06T01:41:41;17.13;;;5.32;;
65996;SDS011;52765;52.258;21.052;2023-04-06T01:44:06;11.75;;;4.40;;
65996;SDS011;52765;52.258;21.052;2023-04-06T01:46:32;12.15;;;4.20;;
65996;SDS011;52765;52.258;21.052;2023-04-06T01:48:57;13.32;;;4.18;;
65996;SDS011;52765;52.258;21.052;2023-04-06T01:51:23;9.88;;;4.05;;
65996;SDS011;52765;52.258;21.052;2023-04-06T01:53:49;12.68;;;4.63;;
65996;SDS011;52765;52.258;21.052;2023-04-06T01:56:15;12.85;;;3.70;;
65996;SDS011;52765;52.258;21.052;2023-04-06T01:58:40;8.38;;;4.20;;
65996;SDS011;52765;52.258;21.052;2023-04-06T02:01:06;9.95;;;4.25;;
65996;SDS011;52765;52.258;21.052;2023-04-06T02:03:31;12.45;;;3.90;;
65996;SDS011;52765;52.258;21.052;2023-04-06T02:05:57;9.30;;;3.88;;
65996;SDS011;52765;52.258;21.052;2023-04-06T02:08:22;10.80;;;3.97;;
65996;SDS011;52765;52.258;21.052;2023-04-06T02:10:48;10.48;;;4.40;;
65996;SDS011;52765;52.258;21.052;2023-04-06T02:13:13;14.82;;;4.15;;
65996;SDS011;52765;52.258;21.052;2023-04-06T02:15:39;12.88;;;4.70;;
65996;SDS011;52765;52.258;21.052;2023-04-06T02:18:04;9.48;;;3.90;;
65996;SDS011;52765;52.258;21.052;2023-04-06T02:20:30;11.13;;;5.05;;
65996;SDS011;52765;52.258;21.052;2023-04-06T02:22:58;9.65;;;4.28;;
65996;SDS011;52765;52.258;21.052;2023-04-06T02:25:25;13.07;;;4.30;;
65996;SDS011;52765;52.258;21.052;2023-04-06T02:27:51;9.50;;;4.47;;
65996;SDS011;52765;52.258;21.052;2023-04-06T02:30:16;8.52;;;4.40;;
65996;SDS011;52765;52.258;21.052;2023-04-06T02:32:42;8.75;;;4.97;;
65996;SDS011;52765;52.258;21.052;2023-04-06T02:35:07;9.73;;;4.85;;
65996;SDS011;52765;52.258;21.052;2023-04-06T02:37:33;10.88;;;4.50;;
65996;SDS011;52765;52.258;21.052;2023-04-06T02:39:58;10.38;;;4.93;;
65996;SDS011;52765;52.258;21.052;2023-04-06T02:42:24;11.82;;;4.95;;
65996;SDS011;52765;52.258;21.052;2023-04-06T02:44:49;9.77;;;4.72;;
65996;SDS011;52765;52.258;21.052;2023-04-06T02:47:15;11.00;;;4.68;;
65996;SDS011;52765;52.258;21.052;2023-04-06T02:49:40;14.18;;;4.57;;
65996;SDS011;52765;52.258;21.052;2023-04-06T02:52:06;12.18;;;5.03;;
65996;SDS011;52765;52.258;21.052;2023-04-06T02:54:31;10.55;;;4.93;;
65996;SDS011;52765;52.258;21.052;2023-04-06T02:56:57;14.88;;;5.10;;
65996;SDS011;52765;52.258;21.052;2023-04-06T02:59:23;14.02;;;5.13;;
65996;SDS011;52765;52.258;21.052;2023-04-06T03:01:48;11.68;;;5.32;;
65996;SDS011;52765;52.258;21.052;2023-04-06T03:04:13;12.80;;;5.68;;
65996;SDS011;52765;52.258;21.052;2023-04-06T03:06:39;11.45;;;4.88;;
65996;SDS011;52765;52.258;21.052;2023-04-06T03:09:05;13.75;;;5.70;;
65996;SDS011;52765;52.258;21.052;2023-04-06T03:11:31;12.70;;;5.32;;
65996;SDS011;52765;52.258;21.052;2023-04-06T03:13:57;13.20;;;5.53;;
65996;SDS011;52765;52.258;21.052;2023-04-06T03:16:22;17.02;;;5.63;;
65996;SDS011;52765;52.258;21.052;2023-04-06T03:18:48;17.88;;;6.28;;
65996;SDS011;52765;52.258;21.052;2023-04-06T03:21:13;13.55;;;5.78;;
65996;SDS011;52765;52.258;21.052;2023-04-06T03:23:42;14.48;;;5.60;;
65996;SDS011;52765;52.258;21.052;2023-04-06T03:26:08;14.98;;;6.00;;
65996;SDS011;52765;52.258;21.052;2023-04-06T03:28:33;15.45;;;6.07;;
65996;SDS011;52765;52.258;21.052;2023-04-06T03:30:59;13.45;;;6.18;;
65996;SDS011;52765;52.258;21.052;2023-04-06T03:33:25;15.57;;;6.25;;
65996;SDS011;52765;52.258;21.052;2023-04-06T03:35:53;15.50;;;6.30;;
65996;SDS011;52765;52.258;21.052;2023-04-06T03:38:19;13.68;;;5.85;;
65996;SDS011;52765;52.258;21.052;2023-04-06T03:40:44;12.63;;;5.57;;
65996;SDS011;52765;52.258;21.052;2023-04-06T03:43:10;15.32;;;5.78;;
65996;SDS011;52765;52.258;21.052;2023-04-06T03:45:36;15.43;;;6.78;;
65996;SDS011;52765;52.258;21.052;2023-04-06T03:48:01;19.13;;;6.13;;
65996;SDS011;52765;52.258;21.052;2023-04-06T03:50:27;15.93;;;6.40;;
65996;SDS011;52765;52.258;21.052;2023-04-06T03:52:52;21.48;;;6.72;;
65996;SDS011;52765;52.258;21.052;2023-04-06T03:55:18;15.77;;;6.63;;
65996;SDS011;52765;52.258;21.052;2023-04-06T03:57:43;13.25;;;6.00;;
65996;SDS011;52765;52.258;21.052;2023-04-06T04:00:09;21.60;;;6.43;;
65996;SDS011;52765;52.258;21.052;2023-04-06T04:02:35;17.27;;;6.43;;
65996;SDS011;52765;52.258;21.052;2023-04-06T04:05:00;18.38;;;6.20;;
65996;SDS011;52765;52.258;21.052;2023-04-06T04:07:26;16.92;;;7.20;;
65996;SDS011;52765;52.258;21.052;2023-04-06T04:09:51;14.80;;;6.00;;
65996;SDS011;52765;52.258;21.052;2023-04-06T04:12:17;16.25;;;6.72;;
65996;SDS011;52765;52.258;21.052;2023-04-06T04:14:42;16.02;;;7.05;;
65996;SDS011;52765;52.258;21.052;2023-04-06T04:17:09;15.00;;;6.47;;
65996;SDS011;52765;52.258;21.052;2023-04-06T04:19:35;15.98;;;6.85;;
65996;SDS011;52765;52.258;21.052;2023-04-06T04:22:00;18.15;;;6.80;;
65996;SDS011;52765;52.258;21.052;2023-04-06T04:24:26;13.45;;;6.63;;
65996;SDS011;52765;52.258;21.052;2023-04-06T04:26:52;21.63;;;7.60;;
65996;SDS011;52765;52.258;21.052;2023-04-06T04:29:17;16.38;;;6.47;;
65996;SDS011;52765;52.258;21.052;2023-04-06T04:31:46;14.82;;;6.22;;
65996;SDS011;52765;52.258;21.052;2023-04-06T04:34:11;17.75;;;6.85;;
65996;SDS011;52765;52.258;21.052;2023-04-06T04:36:37;15.02;;;6.75;;
65996;SDS011;52765;52.258;21.052;2023-04-06T04:39:02;16.52;;;6.25;;
65996;SDS011;52765;52.258;21.052;2023-04-06T04:41:28;17.42;;;6.75;;
65996;SDS011;52765;52.258;21.052;2023-04-06T04:43:53;18.45;;;7.38;;
65996;SDS011;52765;52.258;21.052;2023-04-06T04:46:19;15.55;;;6.57;;
65996;SDS011;52765;52.258;21.052;2023-04-06T04:48:45;14.82;;;7.38;;
65996;SDS011;52765;52.258;21.052;2023-04-06T04:51:10;17.83;;;6.82;;
65996;SDS011;52765;52.258;21.052;2023-04-06T04:53:35;17.35;;;6.63;;
65996;SDS011;52765;52.258;21.052;2023-04-06T04:56:01;15.57;;;6.15;;
65996;SDS011;52765;52.258;21.052;2023-04-06T04:58:26;13.63;;;6.55;;
65996;SDS011;52765;52.258;21.052;2023-04-06T05:00:52;19.55;;;6.90;;
65996;SDS011;52765;52.258;21.052;2023-04-06T05:03:19;13.75;;;6.13;;
65996;SDS011;52765;52.258;21.052;2023-04-06T05:05:48;13.38;;;6.78;;
65996;SDS011;52765;52.258;21.052;2023-04-06T05:08:13;12.85;;;5.78;;
65996;SDS011;52765;52.258;21.052;2023-04-06T05:10:39;15.35;;;6.13;;
65996;SDS011;52765;52.258;21.052;2023-04-06T05:13:05;15.20;;;5.72;;
65996;SDS011;52765;52.258;21.052;2023-04-06T05:15:30;14.73;;;5.55;;
65996;SDS011;52765;52.258;21.052;2023-04-06T05:17:56;11.27;;;6.03;;
65996;SDS011;52765;52.258;21.052;2023-04-06T05:20:21;12.70;;;6.03;;
65996;SDS011;52765;52.258;21.052;2023-04-06T05:25:37;12.05;;;5.13;;
65996;SDS011;52765;52.258;21.052;2023-04-06T05:28:03;17.45;;;5.85;;
65996;SDS011;52765;52.258;21.052;2023-04-06T05:30:31;15.73;;;5.68;;
65996;SDS011;52765;52.258;21.052;2023-04-06T05:32:56;10.98;;;5.50;;
65996;SDS011;52765;52.258;21.052;2023-04-06T05:35:22;17.45;;;5.97;;
65996;SDS011;52765;52.258;21.052;2023-04-06T05:37:47;14.70;;;5.90;;
65996;SDS011;52765;52.258;21.052;2023-04-06T05:40:13;12.40;;;4.88;;
65996;SDS011;52765;52.258;21.052;2023-04-06T05:42:39;11.43;;;4.47;;
65996;SDS011;52765;52.258;21.052;2023-04-06T05:45:06;13.18;;;4.97;;
65996;SDS011;52765;52.258;21.052;2023-04-06T05:47:32;18.77;;;6.55;;
65996;SDS011;52765;52.258;21.052;2023-04-06T05:49:57;12.38;;;4.80;;
65996;SDS011;52765;52.258;21.052;2023-04-06T05:52:23;13.80;;;4.68;;
65996;SDS011;52765;52.258;21.052;2023-04-06T05:54:48;10.18;;;4.18;;
65996;SDS011;52765;52.258;21.052;2023-04-06T05:57:14;9.20;;;4.20;;
65996;SDS011;52765;52.258;21.052;2023-04-06T05:59:41;7.65;;;3.47;;
65996;SDS011;52765;52.258;21.052;2023-04-06T06:02:07;12.00;;;4.55;;
65996;SDS011;52765;52.258;21.052;2023-04-06T06:04:33;10.02;;;3.70;;
65996;SDS011;52765;52.258;21.052;2023-04-06T06:06:58;14.13;;;3.90;;
65996;SDS011;52765;52.258;21.052;2023-04-06T06:09:23;12.50;;;4.05;;
65996;SDS011;52765;52.258;21.052;2023-04-06T06:11:49;7.95;;;3.40;;
65996;SDS011;52765;52.258;21.052;2023-04-06T06:14:15;10.98;;;3.88;;
65996;SDS011;52765;52.258;21.052;2023-04-06T06:16:41;34.67;;;14.95;;
65996;SDS011;52765;52.258;21.052;2023-04-06T06:19:07;9.30;;;3.40;;
65996;SDS011;52765;52.258;21.052;2023-04-06T06:21:33;7.13;;;2.65;;
65996;SDS011;52765;52.258;21.052;2023-04-06T06:23:58;5.28;;;2.80;;
65996;SDS011;52765;52.258;21.052;2023-04-06T06:26:24;8.68;;;3.20;;
65996;SDS011;52765;52.258;21.052;2023-04-06T06:28:49;6.85;;;3.22;;
65996;SDS011;52765;52.258;21.052;2023-04-06T06:31:15;10.98;;;3.22;;
65996;SDS011;52765;52.258;21.052;2023-04-06T06:33:41;6.47;;;2.80;;
65996;SDS011;52765;52.258;21.052;2023-04-06T06:36:06;11.57;;;3.50;;
65996;SDS011;52765;52.258;21.052;2023-04-06T06:38:32;7.50;;;3.03;;
65996;SDS011;52765;52.258;21.052;2023-04-06T06:40:57;7.10;;;2.72;;
65996;SDS011;52765;52.258;21.052;2023-04-06T06:43:23;10.93;;;3.35;;
65996;SDS011;52765;52.258;21.052;2023-04-06T06:45:49;8.75;;;3.13;;
65996;SDS011;52765;52.258;21.052;2023-04-06T06:48:14;5.85;;;3.13;;
65996;SDS011;52765;52.258;21.052;2023-04-06T06:50:40;7.50;;;3.17;;
65996;SDS011;52765;52.258;21.052;2023-04-06T06:53:05;5.50;;;3.03;;
65996;SDS011;52765;52.258;21.052;2023-04-06T06:55:31;7.80;;;2.80;;
65996;SDS011;52765;52.258;21.052;2023-04-06T06:57:57;10.00;;;3.60;;
65996;SDS011;52765;52.258;21.052;2023-04-06T07:00:22;11.85;;;3.92;;
65996;SDS011;52765;52.258;21.052;2023-04-06T07:02:48;7.03;;;2.70;;
65996;SDS011;52765;52.258;21.052;2023-04-06T07:05:13;6.63;;;2.67;;
65996;SDS011;52765;52.258;21.052;2023-04-06T07:07:40;9.48;;;2.70;;
65996;SDS011;52765;52.258;21.052;2023-04-06T07:10:06;4.57;;;2.08;;
65996;SDS011;52765;52.258;21.052;2023-04-06T07:12:32;9.00;;;2.70;;
65996;SDS011;52765;52.258;21.052;2023-04-06T07:14:58;4.93;;;2.38;;
65996;SDS011;52765;52.258;21.052;2023-04-06T07:17:23;7.07;;;2.65;;
65996;SDS011;52765;52.258;21.052;2023-04-06T07:19:50;9.60;;;2.80;;
65996;SDS011;52765;52.258;21.052;2023-04-06T07:22:20;8.95;;;3.00;;
65996;SDS011;52765;52.258;21.052;2023-04-06T07:24:49;6.13;;;2.47;;
65996;SDS011;52765;52.258;21.052;2023-04-06T07:27:14;6.15;;;2.45;;
65996;SDS011;52765;52.258;21.052;2023-04-06T07:29:41;5.30;;;2.38;;
65996;SDS011;52765;52.258;21.052;2023-04-06T07:32:09;8.23;;;2.63;;
65996;SDS011;52765;52.258;21.052;2023-04-06T07:34:35;7.38;;;3.10;;
65996;SDS011;52765;52.258;21.052;2023-04-06T07:37:00;6.20;;;2.60;;
65996;SDS011;52765;52.258;21.052;2023-04-06T07:39:26;6.30;;;2.85;;
65996;SDS011;52765;52.258;21.052;2023-04-06T07:41:53;4.57;;;2.08;;
65996;SDS011;52765;52.258;21.052;2023-04-06T07:44:19;4.85;;;2.40;;
65996;SDS011;52765;52.258;21.052;2023-04-06T07:46:44;9.88;;;3.10;;
65996;SDS011;52765;52.258;21.052;2023-04-06T07:49:10;7.78;;;3.00;;
65996;SDS011;52765;52.258;21.052;2023-04-06T07:51:36;8.07;;;2.70;;
65996;SDS011;52765;52.258;21.052;2023-04-06T07:54:05;8.85;;;2.85;;
65996;SDS011;52765;52.258;21.052;2023-04-06T07:56:31;11.93;;;3.55;;
65996;SDS011;52765;52.258;21.052;2023-04-06T07:58:57;7.80;;;2.70;;
65996;SDS011;52765;52.258;21.052;2023-04-06T08:01:23;8.57;;;2.90;;
65996;SDS011;52765;52.258;21.052;2023-04-06T08:03:49;4.93;;;2.75;;
65996;SDS011;52765;52.258;21.052;2023-04-06T08:06:15;12.50;;;3.08;;
65996;SDS011;52765;52.258;21.052;2023-04-06T08:08:41;7.07;;;3.13;;
65996;SDS011;52765;52.258;21.052;2023-04-06T08:11:07;8.18;;;3.67;;
65996;SDS011;52765;52.258;21.052;2023-04-06T08:13:35;7.35;;;2.92;;
65996;SDS011;52765;52.258;21.052;2023-04-06T08:16:03;7.07;;;3.22;;
65996;SDS011;52765;52.258;21.052;2023-04-06T08:18:28;5.22;;;2.67;;
65996;SDS011;52765;52.258;21.052;2023-04-06T08:20:56;8.88;;;3.10;;
65996;SDS011;52765;52.258;21.052;2023-04-06T08:23:25;13.20;;;3.75;;
65996;SDS011;52765;52.258;21.052;2023-04-06T08:25:50;7.40;;;3.00;;
65996;SDS011;52765;52.258;21.052;2023-04-06T08:28:20;14.55;;;3.03;;
65996;SDS011;52765;52.258;21.052;2023-04-06T08:30:46;5.18;;;2.67;;
65996;SDS011;52765;52.258;21.052;2023-04-06T08:36:06;5.72;;;2.20;;
65996;SDS011;52765;52.258;21.052;2023-04-06T08:38:33;5.32;;;2.60;;
65996;SDS011;52765;52.258;21.052;2023-04-06T08:41:14;7.68;;;2.40;;
65996;SDS011;52765;52.258;21.052;2023-04-06T08:44:18;10.50;;;2.50;;
65996;SDS011;52765;52.258;21.052;2023-04-06T08:46:44;10.02;;;4.30;;
65996;SDS011;52765;52.258;21.052;2023-04-06T08:49:09;6.85;;;3.05;;
65996;SDS011;52765;52.258;21.052;2023-04-06T08:51:36;9.55;;;3.47;;
65996;SDS011;52765;52.258;21.052;2023-04-06T08:54:02;9.38;;;4.38;;
65996;SDS011;52765;52.258;21.052;2023-04-06T08:56:28;7.22;;;2.83;;
65996;SDS011;52765;52.258;21.052;2023-04-06T08:58:54;5.85;;;2.60;;
65996;SDS011;52765;52.258;21.052;2023-04-06T09:01:21;6.20;;;3.00;;
65996;SDS011;52765;52.258;21.052;2023-04-06T09:03:56;5.38;;;2.90;;
65996;SDS011;52765;52.258;21.052;2023-04-06T09:06:23;4.88;;;2.70;;
65996;SDS011;52765;52.258;21.052;2023-04-06T09:08:49;4.97;;;2.60;;
65996;SDS011;52765;52.258;21.052;2023-04-06T09:11:14;5.43;;;2.45;;
65996;SDS011;52765;52.258;21.052;2023-04-06T09:13:50;10.05;;;3.35;;
65996;SDS011;52765;52.258;21.052;2023-04-06T09:16:17;7.22;;;2.80;;
65996;SDS011;52765;52.258;21.052;2023-04-06T09:18:43;11.25;;;3.20;;
65996;SDS011;52765;52.258;21.052;2023-04-06T09:21:09;5.00;;;2.97;;
65996;SDS011;52765;52.258;21.052;2023-04-06T09:23:35;9.05;;;3.03;;
65996;SDS011;52765;52.258;21.052;2023-04-06T09:26:11;5.90;;;2.70;;
65996;SDS011;52765;52.258;21.052;2023-04-06T09:28:47;4.72;;;3.15;;
65996;SDS011;52765;52.258;21.052;2023-04-06T09:31:15;8.02;;;3.33;;
65996;SDS011;52765;52.258;21.052;2023-04-06T09:33:42;7.85;;;3.70;;
65996;SDS011;52765;52.258;21.052;2023-04-06T09:36:09;6.22;;;3.08;;
65996;SDS011;52765;52.258;21.052;2023-04-06T09:38:39;9.50;;;3.22;;
65996;SDS011;52765;52.258;21.052;2023-04-06T09:41:24;5.72;;;3.15;;
65996;SDS011;52765;52.258;21.052;2023-04-06T09:44:04;9.80;;;3.47;;
65996;SDS011;52765;52.258;21.052;2023-04-06T09:46:35;6.40;;;3.50;;
65996;SDS011;52765;52.258;21.052;2023-04-06T09:49:04;9.77;;;3.72;;
65996;SDS011;52765;52.258;21.052;2023-04-06T09:51:32;5.63;;;3.00;;
65996;SDS011;52765;52.258;21.052;2023-04-06T09:54:04;6.93;;;3.55;;
65996;SDS011;52765;52.258;21.052;2023-04-06T10:00:40;5.82;;;3.50;;
65996;SDS011;52765;52.258;21.052;2023-04-06T10:02:58;6.95;;;3.30;;
65996;SDS011;52765;52.258;21.052;2023-04-06T10:05:37;9.23;;;3.30;;
65996;SDS011;52765;52.258;21.052;2023-04-06T10:08:19;13.18;;;3.92;;
65996;SDS011;52765;52.258;21.052;2023-04-06T10:10:50;10.75;;;3.63;;
65996;SDS011;52765;52.258;21.052;2023-04-06T10:13:17;6.82;;;3.20;;
65996;SDS011;52765;52.258;21.052;2023-04-06T10:15:45;7.60;;;4.10;;
65996;SDS011;52765;52.258;21.052;2023-04-06T10:18:12;6.78;;;3.58;;
65996;SDS011;52765;52.258;21.052;2023-04-06T10:20:41;7.00;;;3.75;;
65996;SDS011;52765;52.258;21.052;2023-04-06T10:23:14;7.75;;;3.75;;
65996;SDS011;52765;52.258;21.052;2023-04-06T10:25:59;10.10;;;3.88;;
65996;SDS011;52765;52.258;21.052;2023-04-06T10:28:29;8.73;;;3.28;;
65996;SDS011;52765;52.258;21.052;2023-04-06T10:30:57;5.32;;;3.28;;
65996;SDS011;52765;52.258;21.052;2023-04-06T10:33:25;6.15;;;3.42;;
65996;SDS011;52765;52.258;21.052;2023-04-06T10:35:51;8.43;;;3.67;;
65996;SDS011;52765;52.258;21.052;2023-04-06T10:38:19;5.63;;;3.28;;
65996;SDS011;52765;52.258;21.052;2023-04-06T10:41:03;9.88;;;3.30;;
65996;SDS011;52765;52.258;21.052;2023-04-06T10:43:32;6.63;;;3.85;;
65996;SDS011;52765;52.258;21.052;2023-04-06T10:46:02;6.47;;;3.10;;
65996;SDS011;52765;52.258;21.052;2023-04-06T10:48:43;8.73;;;3.63;;
65996;SDS011;52765;52.258;21.052;2023-04-06T10:51:13;9.15;;;4.05;;
65996;SDS011;52765;52.258;21.052;2023-04-06T10:53:49;7.60;;;4.07;;
65996;SDS011;52765;52.258;21.052;2023-04-06T10:56:16;9.48;;;4.15;;
65996;SDS011;52765;52.258;21.052;2023-04-06T11:19:38;6.43;;;3.78;;
65996;SDS011;52765;52.258;21.052;2023-04-06T11:22:07;8.13;;;4.43;;
65996;SDS011;52765;52.258;21.052;2023-04-06T11:24:33;8.52;;;4.80;;
65996;SDS011;52765;52.258;21.052;2023-04-06T11:26:58;8.10;;;4.60;;
65996;SDS011;52765;52.258;21.052;2023-04-06T11:29:26;8.82;;;4.13;;
65996;SDS011;52765;52.258;21.052;2023-04-06T11:31:57;10.00;;;4.55;;
65996;SDS011;52765;52.258;21.052;2023-04-06T11:34:24;10.25;;;4.70;;
65996;SDS011;52765;52.258;21.052;2023-04-06T11:36:55;8.40;;;4.20;;
65996;SDS011;52765;52.258;21.052;2023-04-06T11:39:23;9.00;;;4.15;;
65996;SDS011;52765;52.258;21.052;2023-04-06T11:41:51;10.00;;;4.53;;
65996;SDS011;52765;52.258;21.052;2023-04-06T11:46:57;8.30;;;4.10;;
65996;SDS011;52765;52.258;21.052;2023-04-06T11:49:27;7.47;;;4.10;;
65996;SDS011;52765;52.258;21.052;2023-04-06T11:51:57;8.73;;;4.38;;
65996;SDS011;52765;52.258;21.052;2023-04-06T11:54:33;7.22;;;4.18;;
65996;SDS011;52765;52.258;21.052;2023-04-06T11:57:01;9.25;;;4.00;;
65996;SDS011;52765;52.258;21.052;2023-04-06T11:59:27;9.68;;;3.67;;
65996;SDS011;52765;52.258;21.052;2023-04-06T12:01:53;6.97;;;4.15;;
65996;SDS011;52765;52.258;21.052;2023-04-06T12:04:19;6.68;;;3.75;;
65996;SDS011;52765;52.258;21.052;2023-04-06T12:06:45;8.65;;;4.32;;
65996;SDS011;52765;52.258;21.052;2023-04-06T12:09:10;10.77;;;4.35;;
65996;SDS011;52765;52.258;21.052;2023-04-06T12:11:36;7.88;;;4.03;;
65996;SDS011;52765;52.258;21.052;2023-04-06T12:14:02;10.60;;;4.45;;
65996;SDS011;52765;52.258;21.052;2023-04-06T12:16:30;7.95;;;4.20;;
65996;SDS011;52765;52.258;21.052;2023-04-06T12:18:57;7.65;;;3.70;;
65996;SDS011;52765;52.258;21.052;2023-04-06T12:21:23;6.93;;;4.13;;
65996;SDS011;52765;52.258;21.052;2023-04-06T12:23:48;8.02;;;3.78;;
65996;SDS011;52765;52.258;21.052;2023-04-06T12:26:14;12.40;;;5.05;;
65996;SDS011;52765;52.258;21.052;2023-04-06T12:28:39;10.20;;;4.47;;
65996;SDS011;52765;52.258;21.052;2023-04-06T12:31:05;7.32;;;4.13;;
65996;SDS011;52765;52.258;21.052;2023-04-06T12:33:31;9.48;;;4.10;;
65996;SDS011;52765;52.258;21.052;2023-04-06T12:35:56;7.82;;;4.18;;
65996;SDS011;52765;52.258;21.052;2023-04-06T12:38:22;10.32;;;5.13;;
65996;SDS011;52765;52.258;21.052;2023-04-06T12:40:47;9.00;;;4.85;;
65996;SDS011;52765;52.258;21.052;2023-04-06T12:43:13;9.20;;;4.78;;
65996;SDS011;52765;52.258;21.052;2023-04-06T12:45:39;10.45;;;4.55;;
65996;SDS011;52765;52.258;21.052;2023-04-06T12:48:05;9.30;;;4.75;;
65996;SDS011;52765;52.258;21.052;2023-04-06T12:50:31;9.73;;;4.72;;
65996;SDS011;52765;52.258;21.052;2023-04-06T12:52:57;9.63;;;4.65;;
65996;SDS011;52765;52.258;21.052;2023-04-06T12:55:22;10.80;;;4.47;;
65996;SDS011;52765;52.258;21.052;2023-04-06T12:57:48;10.48;;;3.92;;
65996;SDS011;52765;52.258;21.052;2023-04-06T13:00:14;7.80;;;3.85;;
65996;SDS011;52765;52.258;21.052;2023-04-06T13:02:40;10.30;;;4.40;;
65996;SDS011;52765;52.258;21.052;2023-04-06T13:05:11;9.93;;;4.00;;
65996;SDS011;52765;52.258;21.052;2023-04-06T13:07:37;6.78;;;3.40;;
65996;SDS011;52765;52.258;21.052;2023-04-06T13:10:03;9.02;;;4.15;;
65996;SDS011;52765;52.258;21.052;2023-04-06T13:12:28;6.18;;;3.67;;
65996;SDS011;52765;52.258;21.052;2023-04-06T13:14:54;8.07;;;3.80;;
65996;SDS011;52765;52.258;21.052;2023-04-06T13:17:19;10.13;;;3.75;;
65996;SDS011;52765;52.258;21.052;2023-04-06T13:19:46;6.43;;;3.70;;
65996;SDS011;52765;52.258;21.052;2023-04-06T13:22:11;6.05;;;3.50;;
65996;SDS011;52765;52.258;21.052;2023-04-06T13:24:37;8.65;;;4.07;;
65996;SDS011;52765;52.258;21.052;2023-04-06T13:27:02;7.43;;;3.58;;
65996;SDS011;52765;52.258;21.052;2023-04-06T13:29:28;7.25;;;3.80;;
65996;SDS011;52765;52.258;21.052;2023-04-06T13:31:53;7.97;;;3.97;;
65996;SDS011;52765;52.258;21.052;2023-04-06T13:34:19;9.38;;;4.03;;
65996;SDS011;52765;52.258;21.052;2023-04-06T13:36:44;8.55;;;4.28;;
65996;SDS011;52765;52.258;21.052;2023-04-06T13:39:10;5.82;;;3.85;;
65996;SDS011;52765;52.258;21.052;2023-04-06T13:41:36;7.35;;;3.97;;
65996;SDS011;52765;52.258;21.052;2023-04-06T13:44:01;9.77;;;4.47;;
65996;SDS011;52765;52.258;21.052;2023-04-06T13:46:27;6.57;;;3.88;;
65996;SDS011;52765;52.258;21.052;2023-04-06T13:48:52;5.80;;;3.60;;
65996;SDS011;52765;52.258;21.052;2023-04-06T13:51:18;6.72;;;3.78;;
65996;SDS011;52765;52.258;21.052;2023-04-06T13:53:43;8.75;;;5.00;;
65996;SDS011;52765;52.258;21.052;2023-04-06T13:56:09;6.45;;;4.35;;
65996;SDS011;52765;52.258;21.052;2023-04-06T13:58:35;7.80;;;4.15;;
65996;SDS011;52765;52.258;21.052;2023-04-06T14:01:02;7.93;;;4.30;;
65996;SDS011;52765;52.258;21.052;2023-04-06T14:03:28;9.10;;;3.58;;
65996;SDS011;52765;52.258;21.052;2023-04-06T14:05:54;7.78;;;4.30;;
65996;SDS011;52765;52.258;21.052;2023-04-06T14:08:20;7.40;;;3.70;;
65996;SDS011;52765;52.258;21.052;2023-04-06T14:10:45;9.25;;;3.95;;
65996;SDS011;52765;52.258;21.052;2023-04-06T14:13:11;9.52;;;4.05;;
65996;SDS011;52765;52.258;21.052;2023-04-06T14:15:37;6.65;;;3.83;;
65996;SDS011;52765;52.258;21.052;2023-04-06T14:18:02;7.93;;;4.05;;
65996;SDS011;52765;52.258;21.052;2023-04-06T14:20:28;6.78;;;4.18;;
65996;SDS011;52765;52.258;21.052;2023-04-06T14:22:55;10.82;;;4.72;;
65996;SDS011;52765;52.258;21.052;2023-04-06T14:25:21;7.88;;;4.55;;
65996;SDS011;52765;52.258;21.052;2023-04-06T14:27:47;7.32;;;4.00;;
65996;SDS011;52765;52.258;21.052;2023-04-06T14:30:12;14.18;;;5.03;;
65996;SDS011;52765;52.258;21.052;2023-04-06T14:32:38;7.60;;;4.43;;
65996;SDS011;52765;52.258;21.052;2023-04-06T14:35:04;6.88;;;4.00;;
65996;SDS011;52765;52.258;21.052;2023-04-06T14:37:30;16.90;;;5.45;;
65996;SDS011;52765;52.258;21.052;2023-04-06T14:39:56;10.48;;;4.30;;
65996;SDS011;52765;52.258;21.052;2023-04-06T14:42:21;13.00;;;5.10;;
65996;SDS011;52765;52.258;21.052;2023-04-06T14:44:47;13.07;;;5.72;;
65996;SDS011;52765;52.258;21.052;2023-04-06T14:47:14;7.53;;;4.63;;
65996;SDS011;52765;52.258;21.052;2023-04-06T14:49:45;12.57;;;5.28;;
65996;SDS011;52765;52.258;21.052;2023-04-06T14:52:11;11.13;;;5.63;;
65996;SDS011;52765;52.258;21.052;2023-04-06T14:54:36;8.90;;;4.50;;
65996;SDS011;52765;52.258;21.052;2023-04-06T14:57:02;8.82;;;4.75;;
65996;SDS011;52765;52.258;21.052;2023-04-06T14:59:28;10.85;;;4.97;;